createdAt,value
2023-05-22T00:02:23.018Z,10.30
2023-05-22T00:04:51.765Z,10.25
2023-05-22T00:07:23.304Z,10.60
2023-05-22T00:09:53.885Z,10.70
2023-05-22T00:12:22.260Z,10.65
2023-05-22T00:14:49.569Z,10.52
2023-05-22T00:17:16.924Z,11.00
2023-05-22T00:19:44.079Z,10.20
2023-05-22T00:22:11.284Z,11.00
2023-05-22T00:24:38.905Z,11.18
2023-05-22T00:27:06.405Z,10.45
2023-05-22T00:29:33.648Z,10.95
2023-05-22T00:32:00.774Z,10.57
2023-05-22T00:34:27.973Z,9.82
2023-05-22T00:36:55.397Z,10.70
2023-05-22T00:39:22.489Z,11.07
2023-05-22T00:41:51.589Z,10.27
2023-05-22T00:44:18.958Z,10.90
2023-05-22T00:46:46.564Z,10.35
2023-05-22T00:49:13.651Z,11.52
2023-05-22T00:51:40.974Z,10.93
2023-05-22T00:54:08.402Z,10.73
2023-05-22T00:56:35.685Z,11.02
2023-05-22T00:59:03.128Z,11.45
2023-05-22T01:01:33.889Z,10.75
2023-05-22T01:04:02.173Z,11.20
2023-05-22T01:06:32.316Z,11.23
2023-05-22T01:11:37.841Z,10.43
2023-05-22T01:14:18.912Z,11.80
2023-05-22T01:17:22.791Z,11.27
2023-05-22T01:20:14.475Z,12.07
2023-05-22T01:23:10.734Z,10.82
2023-05-22T01:25:40.827Z,11.68
2023-05-22T01:28:19.959Z,11.30
2023-05-22T01:30:55.754Z,11.80
2023-05-22T01:33:26.472Z,11.63
2023-05-22T01:35:57.498Z,11.63
2023-05-22T01:38:25.752Z,11.68
2023-05-22T01:40:54.014Z,12.65
2023-05-22T01:44:15.560Z,11.90
2023-05-22T01:46:42.597Z,11.77
2023-05-22T01:49:09.768Z,11.80
2023-05-22T01:51:57.720Z,12.07
2023-05-22T01:54:28.332Z,12.70
2023-05-22T01:57:16.478Z,12.23
2023-05-22T01:59:47.723Z,12.27
2023-05-22T02:02:18.224Z,11.63
2023-05-22T02:05:00.824Z,12.23
2023-05-22T02:07:29.182Z,13.93
2023-05-22T02:09:58.458Z,13.70
2023-05-22T02:12:26.026Z,13.50
2023-05-22T02:14:53.780Z,12.38
2023-05-22T02:17:22.172Z,12.30
2023-05-22T02:19:49.288Z,12.95
2023-05-22T02:22:16.434Z,12.13
2023-05-22T02:24:46.892Z,12.73
2023-05-22T02:27:14.847Z,13.07
2023-05-22T02:29:41.906Z,12.60
2023-05-22T02:32:09.765Z,12.70
2023-05-22T02:34:38.052Z,13.20
2023-05-22T02:37:05.509Z,12.73
2023-05-22T02:39:32.829Z,12.32
2023-05-22T02:41:59.897Z,12.57
2023-05-22T02:44:27.050Z,12.68
2023-05-22T02:46:54.496Z,13.10
2023-05-22T02:49:21.629Z,12.32
2023-05-22T02:51:48.686Z,12.00
2023-05-22T02:54:16.386Z,12.48
2023-05-22T02:56:44.227Z,13.07
2023-05-22T02:59:11.422Z,12.02
2023-05-22T03:01:39.800Z,12.60
2023-05-22T03:04:06.973Z,13.38
2023-05-22T03:06:35.410Z,12.10
2023-05-22T03:09:04.335Z,12.20
2023-05-22T03:11:32.311Z,12.52
2023-05-22T03:13:59.498Z,12.23
2023-05-22T03:16:26.942Z,13.95
2023-05-22T03:19:15.184Z,14.07
2023-05-22T03:21:45.611Z,14.60
2023-05-22T03:24:13.209Z,13.40
2023-05-22T03:26:40.705Z,12.85
2023-05-22T03:29:10.965Z,13.40
2023-05-22T03:31:40.724Z,12.88
2023-05-22T03:34:27.542Z,13.07
2023-05-22T03:36:57.482Z,13.48
2023-05-22T03:39:24.616Z,13.55
2023-05-22T03:42:06.927Z,14.15
2023-05-22T03:44:34.011Z,13.77
2023-05-22T03:47:01.849Z,13.57
2023-05-22T03:49:31.102Z,13.73
2023-05-22T03:51:58.159Z,13.68
2023-05-22T03:54:25.222Z,12.80
2023-05-22T03:56:52.261Z,12.77
2023-05-22T03:59:20.069Z,13.75
2023-05-22T04:01:47.164Z,14.20
2023-05-22T04:04:14.387Z,12.98
2023-05-22T04:06:43.384Z,14.07
2023-05-22T04:09:13.801Z,14.57
2023-05-22T04:11:42.308Z,12.80
2023-05-22T04:14:09.798Z,13.63
2023-05-22T04:16:36.887Z,13.27
2023-05-22T04:19:04.094Z,13.18
2023-05-22T04:21:34.498Z,13.15
2023-05-22T04:24:07.301Z,13.63
2023-05-22T04:26:34.617Z,13.07
2023-05-22T04:29:02.352Z,12.90
2023-05-22T04:31:29.690Z,12.10
2023-05-22T04:33:56.866Z,12.98
2023-05-22T04:36:29.368Z,13.40
2023-05-22T04:38:56.722Z,13.02
2023-05-22T04:41:26.681Z,11.52
2023-05-22T04:44:47.321Z,12.63
2023-05-22T04:56:37.818Z,13.13
2023-05-22T04:59:09.072Z,12.90
2023-05-22T05:01:38.445Z,12.63
2023-05-22T05:04:05.707Z,12.55
2023-05-22T05:06:32.806Z,13.40
2023-05-22T05:08:59.853Z,14.43
2023-05-22T05:11:26.847Z,13.98
2023-05-22T05:13:53.956Z,13.15
2023-05-22T05:16:21.110Z,14.32
2023-05-22T05:18:48.205Z,13.25
2023-05-22T05:21:15.374Z,13.93
2023-05-22T05:23:43.086Z,13.52
2023-05-22T05:26:10.282Z,13.77
2023-05-22T05:29:04.303Z,12.65
2023-05-22T05:31:38.657Z,13.65
2023-05-22T05:34:08.520Z,14.60
2023-05-22T05:36:59.587Z,14.48
2023-05-22T05:39:26.633Z,14.32
2023-05-22T05:41:53.859Z,13.77
2023-05-22T05:44:21.633Z,14.27
2023-05-22T05:46:49.040Z,15.00
2023-05-22T05:49:20.060Z,14.27
2023-05-22T05:51:47.921Z,15.30
2023-05-22T05:54:16.657Z,13.77
2023-05-22T05:56:45.029Z,13.70
2023-05-22T05:59:12.284Z,14.32
2023-05-22T06:01:41.553Z,13.93
2023-05-22T06:04:15.676Z,13.23
2023-05-22T06:09:15.590Z,12.70
2023-05-22T06:12:13.004Z,12.40
2023-05-22T06:14:45.808Z,14.05
2023-05-22T06:17:19.259Z,11.90
2023-05-22T06:19:48.553Z,12.77
2023-05-22T06:22:18.957Z,12.10
2023-05-22T06:24:56.016Z,12.88
2023-05-22T06:27:42.782Z,12.45
2023-05-22T06:30:10.220Z,12.07
2023-05-22T06:32:39.846Z,12.68
2023-05-22T06:35:08.167Z,12.73
2023-05-22T06:37:35.899Z,12.45
2023-05-22T06:40:04.169Z,12.80
2023-05-22T06:42:52.757Z,12.18
2023-05-22T06:46:30.477Z,12.18
2023-05-22T06:49:02.186Z,11.73
2023-05-22T06:51:45.950Z,12.15
2023-05-22T06:54:15.249Z,11.68
2023-05-22T06:56:46.253Z,11.77
2023-05-22T06:59:17.909Z,12.52
2023-05-22T07:02:03.681Z,11.90
2023-05-22T07:04:56.792Z,11.70
2023-05-22T07:07:31.628Z,12.70
2023-05-22T07:10:14.787Z,10.90
2023-05-22T07:12:41.898Z,10.98
2023-05-22T07:15:12.256Z,11.48
2023-05-22T07:17:41.999Z,11.48
2023-05-22T07:20:15.593Z,10.82
2023-05-22T07:23:18.260Z,11.57
2023-05-22T07:25:49.842Z,11.60
2023-05-22T07:28:19.724Z,11.25
2023-05-22T07:30:53.782Z,11.65
2023-05-22T07:33:24.046Z,11.18
2023-05-22T07:35:52.252Z,11.45
2023-05-22T07:38:19.881Z,11.23
2023-05-22T07:40:56.247Z,11.50
2023-05-22T07:43:24.299Z,12.13
2023-05-22T07:45:51.942Z,11.13
2023-05-22T07:48:23.275Z,10.38
2023-05-22T07:50:50.394Z,10.30
2023-05-22T07:53:18.381Z,11.20
2023-05-22T07:55:49.349Z,10.30
2023-05-22T07:58:16.750Z,11.70
2023-05-22T08:00:46.474Z,10.70
2023-05-22T08:03:14.795Z,10.95
2023-05-22T08:05:42.444Z,11.75
2023-05-22T08:08:10.550Z,11.27
2023-05-22T08:13:07.905Z,11.85
2023-05-22T08:15:35.463Z,12.35
2023-05-22T08:18:02.784Z,11.38
2023-05-22T08:20:29.907Z,11.65
2023-05-22T08:22:57.060Z,10.90
2023-05-22T08:25:24.139Z,11.20
2023-05-22T08:27:52.153Z,11.68
2023-05-22T08:30:19.179Z,11.98
2023-05-22T08:32:46.262Z,11.10
2023-05-22T08:35:14.365Z,11.05
2023-05-22T08:37:41.637Z,9.07
2023-05-22T08:40:14.910Z,11.18
2023-05-22T08:42:42.565Z,11.05
2023-05-22T08:45:09.996Z,9.70
2023-05-22T08:47:37.788Z,10.00
2023-05-22T08:50:05.234Z,9.55
2023-05-22T08:52:44.387Z,10.07
2023-05-22T08:55:11.879Z,10.55
2023-05-22T08:57:39.877Z,10.23
2023-05-22T09:00:07.936Z,10.10
2023-05-22T09:02:36.016Z,9.60
2023-05-22T09:05:05.508Z,11.02
2023-05-22T09:07:32.642Z,11.05
2023-05-22T09:09:59.807Z,11.60
2023-05-22T09:12:29.593Z,11.38
2023-05-22T09:14:58.801Z,10.55
2023-05-22T09:17:26.769Z,10.73
2023-05-22T09:19:53.977Z,10.63
2023-05-22T09:22:22.373Z,11.38
2023-05-22T09:24:51.622Z,10.82
2023-05-22T09:27:23.066Z,11.27
2023-05-22T09:29:52.522Z,11.32
2023-05-22T09:32:20.296Z,10.57
2023-05-22T09:34:47.824Z,10.63
2023-05-22T09:37:15.886Z,10.25
2023-05-22T09:39:47.807Z,10.20
2023-05-22T09:42:18.432Z,10.88
2023-05-22T09:44:49.598Z,9.88
2023-05-22T09:47:16.841Z,10.45
2023-05-22T09:49:45.015Z,10.55
2023-05-22T09:52:13.100Z,10.45
2023-05-22T09:54:49.503Z,11.05
2023-05-22T09:57:19.709Z,10.32
2023-05-22T09:59:54.982Z,9.73
2023-05-22T10:02:27.076Z,10.52
2023-05-22T10:04:57.465Z,10.68
2023-05-22T10:07:35.855Z,10.30
2023-05-22T10:10:09.460Z,9.90
2023-05-22T10:12:43.611Z,10.07
2023-05-22T10:15:11.817Z,10.70
2023-05-22T10:17:40.329Z,9.77
2023-05-22T10:20:09.098Z,10.75
2023-05-22T10:22:37.883Z,9.43
2023-05-22T10:25:06.707Z,10.23
2023-05-22T10:27:35.166Z,11.02
2023-05-22T10:30:31.567Z,9.93
2023-05-22T10:33:30.095Z,9.88
2023-05-22T10:36:03.557Z,10.00
2023-05-22T10:39:05.033Z,9.82
2023-05-22T10:41:32.444Z,9.10
2023-05-22T10:43:59.583Z,8.93
2023-05-22T10:46:26.807Z,9.18
2023-05-22T10:48:55.456Z,9.35
2023-05-22T10:51:23.402Z,9.75
2023-05-22T10:54:08.476Z,9.20
2023-05-22T10:56:36.305Z,8.98
2023-05-22T10:59:05.448Z,9.05
2023-05-22T11:01:38.610Z,9.10
2023-05-22T11:04:18.931Z,8.60
2023-05-22T11:07:05.096Z,9.15
2023-05-22T11:09:33.654Z,10.30
2023-05-22T11:12:12.648Z,9.45
2023-05-22T11:14:39.948Z,8.75
2023-05-22T11:17:07.194Z,9.90
2023-05-22T11:19:34.561Z,9.23
2023-05-22T11:22:03.039Z,9.75
2023-05-22T11:24:36.354Z,9.52
2023-05-22T11:27:06.906Z,9.23
2023-05-22T11:29:34.987Z,9.23
2023-05-22T11:32:03.250Z,8.48
2023-05-22T11:34:30.367Z,8.82
2023-05-22T11:36:59.849Z,8.52
2023-05-22T11:39:28.550Z,8.65
2023-05-22T11:41:55.624Z,8.75
2023-05-22T11:44:22.672Z,9.80
2023-05-22T11:46:49.833Z,8.75
2023-05-22T11:49:17.426Z,8.85
2023-05-22T11:51:44.655Z,8.13
2023-05-22T11:54:11.987Z,7.63
2023-05-22T11:56:39.003Z,8.10
2023-05-22T11:59:06.125Z,7.95
2023-05-22T12:01:33.370Z,8.85
2023-05-22T12:04:00.538Z,7.43
2023-05-22T12:06:39.982Z,8.00
2023-05-22T12:09:07.363Z,8.02
2023-05-22T12:11:37.931Z,7.95
2023-05-22T12:14:05.171Z,8.32
2023-05-22T12:16:36.772Z,8.18
2023-05-22T12:19:08.843Z,8.10
2023-05-22T12:21:37.814Z,8.00
2023-05-22T12:24:06.308Z,7.78
2023-05-22T12:26:33.355Z,8.13
2023-05-22T12:29:00.809Z,7.72
2023-05-22T12:31:27.908Z,8.40
2023-05-22T12:34:22.150Z,8.48
2023-05-22T12:36:49.395Z,7.93
2023-05-22T12:39:18.105Z,8.10
2023-05-22T12:41:45.988Z,7.93
2023-05-22T12:44:15.502Z,7.93
2023-05-22T12:49:10.897Z,7.00
2023-05-22T12:51:37.972Z,7.82
2023-05-22T12:54:05.549Z,7.75
2023-05-22T12:56:32.730Z,7.78
2023-05-22T12:58:59.718Z,7.30
2023-05-22T13:01:27.048Z,7.40
2023-05-22T13:03:54.495Z,7.07
2023-05-22T13:06:21.672Z,7.60
2023-05-22T13:08:48.717Z,7.53
2023-05-22T13:11:15.904Z,7.60
2023-05-22T13:13:42.973Z,7.43
2023-05-22T13:16:10.827Z,7.07
2023-05-22T13:18:37.902Z,7.28
2023-05-22T13:21:05.165Z,7.15
2023-05-22T13:23:32.193Z,7.78
2023-05-22T13:26:02.032Z,7.60
2023-05-22T13:28:29.254Z,7.85
2023-05-22T13:30:56.634Z,6.82
2023-05-22T13:33:23.707Z,8.20
2023-05-22T13:35:51.295Z,7.75
2023-05-22T13:38:18.495Z,7.00
2023-05-22T13:40:48.150Z,6.68
2023-05-22T13:43:15.884Z,7.30
2023-05-22T13:45:42.993Z,7.68
2023-05-22T13:48:10.158Z,7.10
2023-05-22T13:50:37.180Z,7.43
2023-05-22T13:53:04.216Z,6.82
2023-05-22T13:55:31.608Z,6.93
2023-05-22T13:57:58.931Z,6.50
2023-05-22T14:00:53.475Z,7.15
2023-05-22T14:03:20.813Z,6.53
2023-05-22T14:05:48.497Z,7.43
2023-05-22T14:08:15.673Z,6.88
2023-05-22T14:10:42.787Z,6.47
2023-05-22T14:13:09.874Z,6.68
2023-05-22T14:15:36.917Z,6.55
2023-05-22T14:18:04.139Z,6.72
2023-05-22T14:20:31.237Z,6.38
2023-05-22T14:22:58.629Z,6.28
2023-05-22T14:25:28.193Z,6.32
2023-05-22T14:27:55.266Z,6.07
2023-05-22T14:31:15.615Z,6.30
2023-05-22T14:33:42.688Z,6.53
2023-05-22T14:36:09.739Z,6.63
2023-05-22T14:38:36.781Z,6.43
2023-05-22T14:41:03.967Z,6.75
2023-05-22T14:43:31.042Z,6.10
2023-05-22T14:45:59.294Z,6.38
2023-05-22T14:48:26.911Z,6.93
2023-05-22T14:50:54.127Z,5.88
2023-05-22T14:53:21.608Z,5.97
2023-05-22T14:55:49.073Z,6.00
2023-05-22T14:58:18.188Z,6.40
2023-05-22T15:00:47.222Z,6.90
2023-05-22T15:03:14.604Z,6.53
2023-05-22T15:05:41.900Z,6.22
2023-05-22T15:08:09.179Z,7.03
2023-05-22T15:10:36.794Z,6.97
2023-05-22T15:13:04.107Z,7.43
2023-05-22T15:15:31.187Z,6.97
2023-05-22T15:18:00.840Z,7.45
2023-05-22T15:20:28.105Z,7.65
2023-05-22T15:22:55.145Z,7.97
2023-05-22T15:25:22.154Z,8.15
2023-05-22T15:27:49.211Z,8.30
2023-05-22T15:30:17.337Z,8.02
2023-05-22T15:32:44.684Z,8.07
2023-05-22T15:35:14.080Z,8.30
2023-05-22T15:37:41.413Z,8.02
2023-05-22T15:40:11.254Z,7.85
2023-05-22T15:42:38.538Z,7.85
2023-05-22T15:45:06.022Z,8.50
2023-05-22T15:47:33.103Z,8.50
2023-05-22T15:50:00.228Z,7.90
2023-05-22T15:52:27.256Z,7.47
2023-05-22T15:54:56.889Z,7.88
2023-05-22T15:57:24.140Z,7.03
2023-05-22T15:59:51.222Z,6.45
2023-05-22T16:02:18.928Z,6.53
2023-05-22T16:04:46.467Z,6.20
2023-05-22T16:07:13.518Z,5.82
2023-05-22T16:09:43.390Z,6.50
2023-05-22T16:12:10.730Z,6.22
2023-05-22T16:14:39.815Z,5.68
2023-05-22T16:17:07.206Z,5.78
2023-05-22T16:19:34.362Z,5.85
2023-05-22T16:22:01.529Z,5.55
2023-05-22T16:24:28.652Z,5.25
2023-05-22T16:26:57.847Z,5.60
2023-05-22T16:29:24.968Z,6.20
2023-05-22T16:31:52.350Z,6.50
2023-05-22T16:34:19.394Z,6.10
2023-05-22T16:36:46.593Z,6.53
2023-05-22T16:39:13.785Z,6.78
2023-05-22T16:41:40.746Z,7.03
2023-05-22T16:44:07.804Z,7.32
2023-05-22T16:50:54.030Z,7.88
2023-05-22T16:53:21.067Z,6.82
2023-05-22T16:55:48.176Z,6.30
2023-05-22T16:58:15.250Z,6.53
2023-05-22T17:00:42.465Z,6.85
2023-05-22T17:03:11.849Z,6.20
2023-05-22T17:05:39.474Z,6.70
2023-05-22T17:08:07.003Z,6.38
2023-05-22T17:10:34.008Z,6.28
2023-05-22T17:13:01.005Z,5.60
2023-05-22T17:15:27.999Z,6.00
2023-05-22T17:17:55.126Z,6.80
2023-05-22T17:20:23.154Z,6.15
2023-05-22T17:22:50.454Z,6.43
2023-05-22T17:25:17.545Z,5.57
2023-05-22T17:27:44.937Z,5.80
2023-05-22T17:30:12.205Z,6.20
2023-05-22T17:33:03.750Z,5.47
2023-05-22T17:35:31.105Z,5.78
2023-05-22T17:37:58.103Z,5.55
2023-05-22T17:40:36.538Z,4.82
2023-05-22T17:43:10.592Z,6.47
2023-05-22T17:45:37.813Z,4.78
2023-05-22T17:48:05.122Z,5.60
2023-05-22T17:50:32.160Z,5.25
2023-05-22T17:52:59.300Z,5.43
2023-05-22T17:55:26.276Z,5.75
2023-05-22T17:57:53.570Z,4.93
2023-05-22T18:00:20.670Z,5.80
2023-05-22T18:02:47.830Z,6.35
2023-05-22T18:05:16.636Z,6.10
2023-05-22T18:07:43.920Z,6.43
2023-05-22T18:10:11.240Z,7.15
2023-05-22T18:12:38.682Z,7.75
2023-05-22T18:15:08.606Z,7.20
2023-05-22T18:17:35.808Z,7.20
2023-05-22T18:20:04.067Z,7.45
2023-05-22T18:22:31.167Z,7.00
2023-05-22T18:24:58.219Z,7.00
2023-05-22T18:27:25.225Z,8.07
2023-05-22T18:29:52.244Z,7.72
2023-05-22T18:32:19.258Z,8.05
2023-05-22T18:34:46.628Z,7.50
2023-05-22T18:37:14.190Z,8.07
2023-05-22T18:39:41.363Z,7.70
2023-05-22T18:42:08.374Z,8.32
2023-05-22T18:44:35.436Z,8.27
2023-05-22T18:47:02.466Z,8.27
2023-05-22T18:49:29.563Z,8.52
2023-05-22T18:51:56.944Z,9.27
2023-05-22T18:54:24.335Z,8.73
2023-05-22T18:56:51.785Z,8.63
2023-05-22T18:59:19.061Z,9.02
2023-05-22T19:01:46.109Z,9.98
2023-05-22T19:04:13.320Z,9.27
2023-05-22T19:06:42.132Z,9.18
2023-05-22T19:09:10.221Z,8.98
2023-05-22T19:11:37.241Z,9.40
2023-05-22T19:14:04.399Z,8.90
2023-05-22T19:16:31.478Z,9.48
2023-05-22T19:18:58.559Z,9.68
2023-05-22T19:21:26.770Z,9.35
2023-05-22T19:23:53.799Z,8.68
2023-05-22T19:26:21.131Z,8.68
2023-05-22T19:28:48.099Z,7.95
2023-05-22T19:31:15.175Z,9.80
2023-05-22T19:33:42.675Z,10.02
2023-05-22T19:36:09.703Z,10.15
2023-05-22T19:38:36.678Z,10.63
2023-05-22T19:41:03.785Z,10.82
2023-05-22T19:43:31.412Z,11.40
2023-05-22T19:45:58.617Z,10.55
2023-05-22T19:48:25.814Z,10.32
2023-05-22T19:50:53.733Z,10.88
2023-05-22T19:54:25.393Z,10.75
2023-05-22T19:56:52.459Z,10.30
2023-05-22T19:59:19.575Z,10.52
2023-05-22T20:01:46.584Z,10.80
2023-05-22T20:04:14.250Z,10.38
2023-05-22T20:06:45.263Z,11.03
2023-05-22T20:11:39.458Z,11.82
2023-05-22T20:14:07.703Z,11.65
2023-05-22T20:16:34.764Z,10.70
2023-05-22T20:19:04.139Z,11.55
2023-05-22T20:21:49.076Z,11.38
2023-05-22T20:24:20.114Z,10.65
2023-05-22T20:26:47.797Z,12.00
2023-05-22T20:29:15.627Z,11.55
2023-05-22T20:31:48.630Z,13.15
2023-05-22T20:34:15.768Z,11.48
2023-05-22T20:36:42.785Z,11.52
2023-05-22T20:39:11.959Z,12.63
2023-05-22T20:41:39.011Z,12.77
2023-05-22T20:44:06.532Z,12.15
2023-05-22T20:46:33.892Z,13.05
2023-05-22T20:49:02.981Z,12.60
2023-05-22T20:51:32.755Z,12.23
2023-05-22T20:54:04.154Z,12.48
2023-05-22T20:56:31.231Z,12.15
2023-05-22T20:58:58.226Z,13.32
2023-05-22T21:01:25.581Z,12.93
2023-05-22T21:03:54.655Z,13.43
2023-05-22T21:06:22.170Z,12.52
2023-05-22T21:08:50.929Z,11.95
2023-05-22T21:11:21.047Z,12.85
2023-05-22T21:13:48.028Z,12.77
2023-05-22T21:16:14.975Z,12.38
2023-05-22T21:18:41.977Z,13.65
2023-05-22T21:21:09.047Z,12.55
2023-05-22T21:23:36.073Z,13.55
2023-05-22T21:26:03.111Z,14.02
2023-05-22T21:28:30.255Z,14.50
2023-05-22T21:31:02.187Z,13.73
2023-05-22T21:33:29.328Z,13.75
2023-05-22T21:35:56.597Z,14.68
2023-05-22T21:38:23.652Z,14.25
2023-05-22T21:40:50.804Z,13.07
2023-05-22T21:43:17.851Z,13.82
2023-05-22T21:45:44.916Z,15.57
2023-05-22T21:48:12.294Z,15.05
2023-05-22T21:50:39.652Z,15.25
2023-05-22T21:53:06.951Z,15.15
2023-05-22T21:55:36.116Z,15.27
2023-05-22T21:58:03.194Z,14.98
2023-05-22T22:00:30.249Z,14.57
2023-05-22T22:02:57.562Z,14.18
2023-05-22T22:05:27.607Z,15.25
2023-05-22T22:07:54.798Z,14.48
2023-05-22T22:10:22.374Z,14.88
2023-05-22T22:12:49.766Z,14.63
2023-05-22T22:15:17.274Z,14.57
2023-05-22T22:17:44.279Z,13.02
2023-05-22T22:20:12.290Z,13.98
2023-05-22T22:22:40.748Z,14.02
2023-05-22T22:25:08.253Z,13.32
2023-05-22T22:28:40.817Z,12.77
2023-05-22T22:31:07.922Z,12.57
2023-05-22T22:33:34.960Z,11.95
2023-05-22T22:36:02.122Z,13.10
2023-05-22T22:38:32.842Z,13.23
2023-05-22T22:41:00.647Z,13.88
2023-05-22T22:43:27.791Z,13.90
2023-05-22T22:45:55.952Z,13.10
2023-05-22T22:48:23.310Z,14.32
2023-05-22T22:50:50.463Z,13.95
2023-05-22T22:53:17.538Z,14.88
2023-05-22T22:55:47.311Z,14.73
2023-05-22T22:58:14.629Z,16.20
2023-05-22T23:00:41.975Z,15.73
2023-05-22T23:03:09.003Z,16.23
2023-05-22T23:05:36.232Z,16.50
2023-05-22T23:08:03.558Z,15.68
2023-05-22T23:10:30.657Z,16.38
2023-05-22T23:12:58.148Z,16.52
2023-05-22T23:15:25.571Z,16.30
2023-05-22T23:17:52.669Z,16.10
2023-05-22T23:20:19.827Z,16.15
2023-05-22T23:22:47.188Z,15.23
2023-05-22T23:25:14.236Z,16.42
2023-05-22T23:27:42.052Z,16.27
2023-05-22T23:30:09.462Z,15.68
2023-05-22T23:32:36.560Z,17.30
2023-05-22T23:35:04.999Z,16.60
2023-05-22T23:37:32.073Z,15.75
2023-05-22T23:39:59.055Z,16.92
2023-05-22T23:42:26.129Z,17.05
2023-05-22T23:44:53.117Z,16.33
2023-05-22T23:47:20.170Z,16.85
2023-05-22T23:49:47.308Z,17.80
2023-05-22T23:52:14.380Z,17.60
2023-05-22T23:54:41.452Z,16.98
2023-05-22T23:57:08.611Z,15.90
2023-05-22T23:59:35.619Z,15.93
